Lubbock Preston Smith International Airport
KLBB : now visible

Airfield :











YOU CAN JOIN US ON...

 
LOGIN :

Register | Disclaimer

   EN    FR    IT 

 









Legend :    VFR   Marginal VFR   IFR   Intensive IFR   Very Intensive IFR
Visi :
Ceiling :
>= 8 km
>= 3000ft
5 to 8 km
1000 to 3000 ft
1500m to 5 km
500 to 1000 ft
800 to 1500m
200 to 500 ft
< 800m
< 200 ft
Symbols :   Thunderstorms  Fog  Heavy snow  Heavy precipitations  Wind > 20 kt






- Airport Elevation : 3282 ft
- IATA code : LBB


KLBB - Lubbock Preston Smith International

CURRENT METAR :
  • 141053Z 14009KT 10SM FEW200 22/19 A3004 RMK AO2 SLP115 T02170194

EXPIRED METARs :
  • 140953Z 11009KT 10SM CLR 22/19 A3004 RMK AO2 SLP115 T02170194
  • 140853Z 11009KT 10SM CLR 22/19 A3004 RMK AO2 SLP112 T02220194 55005
  • 140753Z 12008KT 10SM CLR 23/19 A3002 RMK AO2 SLP108 T02280189
  • 140653Z 13009KT 10SM CLR 23/19 A3003 RMK AO2 SLP112 T02330194

TAF KLBB
Valid from the 14 at 12:00 until the 15 at 12:00 UTC


141120Z 1412/1512 11010KT P6SM SKC
FM142000 15012G20KT P6SM SKC
FM150200 12012KT P6SM SKC
KZFW FIR / North America



MET'MAP, your aeronautical weather chart ! - Copyright ORBIFLY December 2007 - Disclaimer

ORBIFLY MET'MAP TEAM :

Programming & Development : Alexandra Zaïnal
Original concept : Baudouin d'Aumeries
Technical & hardware support : Manuel Goepfert
Assistance : Marc-Olivier Méhu




SOURCES & CREDITS :

   NOAA       Earth
Advisory